Time;durP1;ratioP1;P1;durP2;ratioP2;P2;SDS_P1;SDS_P2;PMS_P1;PMS_P2;Temp;Humidity;BMP_temperature;BMP_pressure;BME280_temperature;BME280_humidity;BME280_pressure;Samples;Min_cycle;Max_cycle;Signal;HPM_P1;HPM_P2
2021/11/26 00:01:34;;;;;;;24.30;11.87;;;;;;;12.01;59.90;99517.31;5074072;28;20249;-73
2021/11/26 00:04:00;;;;;;;24.33;11.10;;;;;;;11.60;60.80;99523.19;5056341;28;20182;-73
2021/11/26 00:06:26;;;;;;;26.13;11.13;;;;;;;11.71;60.14;99517.00;5055831;28;20613;-73
2021/11/26 00:08:52;;;;;;;25.63;12.73;;;;;;;11.74;61.10;99532.81;5039431;28;20331;-73
2021/11/26 00:11:17;;;;;;;22.47;11.47;;;;;;;12.03;60.05;99518.03;5055806;28;20191;-73
2021/11/26 00:13:47;;;;;;;21.90;11.67;;;;;;;11.51;60.84;99527.41;5055968;28;20198;-73
2021/11/26 00:16:18;;;;;;;25.43;11.97;;;;;;;11.95;60.01;99514.28;5056362;28;20191;-73
2021/11/26 00:18:47;;;;;;;21.77;11.70;;;;;;;11.79;60.41;99539.53;5055809;28;20646;-73
2021/11/26 00:21:13;;;;;;;24.20;12.27;;;;;;;11.77;60.29;99528.06;5056236;28;20577;-73
2021/11/26 00:23:38;;;;;;;24.10;11.13;;;;;;;11.66;60.10;99521.88;5055428;28;20235;-73
2021/11/26 00:26:04;;;;;;;21.13;10.43;;;;;;;11.42;60.59;99516.59;5073426;28;20196;-73
2021/11/26 00:28:29;;;;;;;23.30;11.00;;;;;;;11.14;61.79;99510.69;5055592;28;20258;-74
2021/11/26 00:30:54;;;;;;;27.27;11.53;;;;;;;11.81;60.63;99521.53;5038703;28;20250;-74
2021/11/26 00:33:21;;;;;;;24.03;12.03;;;;;;;11.56;61.00;99509.22;5038649;28;20184;-72
2021/11/26 00:35:47;;;;;;;26.03;11.60;;;;;;;11.60;60.47;99517.84;5055558;28;20200;-73
2021/11/26 00:38:12;;;;;;;20.77;11.00;;;;;;;11.37;60.91;99506.25;5055453;28;20176;-74
2021/11/26 00:40:38;;;;;;;20.53;11.10;;;;;;;11.68;59.91;99520.78;5055243;28;20669;-73
2021/11/26 00:43:03;;;;;;;22.70;11.40;;;;;;;11.86;59.80;99505.13;5073299;28;20165;-73
2021/11/26 00:45:28;;;;;;;21.33;11.20;;;;;;;11.59;60.63;99503.66;5055246;28;20194;-73
2021/11/26 00:47:54;;;;;;;26.30;12.03;;;;;;;11.59;60.13;99503.66;5073535;28;20163;-73
2021/11/26 00:50:19;;;;;;;25.47;12.13;;;;;;;11.58;60.65;99507.28;5055100;28;20205;-73
2021/11/26 00:52:45;;;;;;;25.17;11.63;;;;;;;11.66;60.34;99503.16;5055521;28;20182;-73
2021/11/26 00:55:12;;;;;;;20.43;10.40;;;;;;;11.24;61.04;99501.03;5039115;28;20326;-73
2021/11/26 00:57:37;;;;;;;23.87;12.10;;;;;;;11.73;60.20;99493.69;5055375;28;20253;-73
2021/11/26 01:00:05;;;;;;;24.87;12.40;;;;;;;11.54;61.14;99505.81;5072483;28;20202;-73
2021/11/26 01:02:30;;;;;;;25.23;11.53;;;;;;;11.62;60.57;99489.19;5054989;28;20268;-73
2021/11/26 01:04:55;;;;;;;23.00;11.63;;;;;;;11.45;60.02;99485.16;5055096;28;20256;-73
2021/11/26 01:07:21;;;;;;;22.10;11.37;;;;;;;11.79;59.49;99475.38;5055172;28;20173;-73
2021/11/26 01:09:46;;;;;;;24.80;13.00;;;;;;;12.19;59.15;99481.03;5072842;28;20198;-73
2021/11/26 01:12:11;;;;;;;27.13;12.53;;;;;;;11.81;60.12;99480.59;5055289;28;20189;-73
2021/11/26 01:14:36;;;;;;;28.83;11.83;;;;;;;11.84;59.55;99469.66;5072953;28;20265;-73
2021/11/26 01:17:02;;;;;;;23.23;12.20;;;;;;;12.11;59.50;99480.81;5054873;28;20725;-73
2021/11/26 01:19:27;;;;;;;22.67;12.20;;;;;;;11.69;59.80;99476.19;5054850;28;20196;-73
2021/11/26 01:21:53;;;;;;;25.53;12.43;;;;;;;11.23;60.89;99469.09;5055091;28;20166;-73
2021/11/26 01:24:18;;;;;;;30.27;13.37;;;;;;;11.89;59.49;99467.44;5054739;28;20671;-73
2021/11/26 01:26:43;;;;;;;24.70;12.20;;;;;;;11.59;60.37;99474.25;5054883;28;20201;-73
2021/11/26 01:29:09;;;;;;;23.53;12.13;;;;;;;11.80;59.70;99473.53;5073012;28;20265;-73
2021/11/26 01:31:36;;;;;;;25.20;12.20;;;;;;;11.09;61.14;99474.63;5055200;28;20202;-73
2021/11/26 01:34:03;;;;;;;23.70;11.87;;;;;;;11.02;61.26;99460.03;5072634;28;20212;-73
2021/11/26 01:36:28;;;;;;;23.07;11.60;;;;;;;11.14;60.86;99453.75;5054887;28;20194;-73
2021/11/26 01:38:54;;;;;;;23.77;12.30;;;;;;;10.95;61.60;99449.84;5038050;28;20174;-73
2021/11/26 01:41:19;;;;;;;24.67;12.50;;;;;;;11.25;61.08;99453.81;5072447;28;20202;-73
2021/11/26 01:43:45;;;;;;;29.20;12.50;;;;;;;10.96;61.14;99440.00;5054622;28;20682;-73
2021/11/26 01:46:10;;;;;;;25.60;12.97;;;;;;;11.07;61.69;99453.38;5054800;28;20201;-73
2021/11/26 01:48:41;;;;;;;21.77;11.57;;;;;;;11.49;61.05;99451.03;5054485;28;20579;-74
2021/11/26 01:51:10;;;;;;;29.17;12.77;;;;;;;11.51;61.03;99441.91;5054671;28;20208;-73
2021/11/26 01:53:36;;;;;;;28.03;12.50;;;;;;;10.87;61.91;99436.22;5054609;28;20334;-73
2021/11/26 01:56:02;;;;;;;26.47;12.17;;;;;;;10.98;61.75;99434.56;5054348;28;20208;-73
2021/11/26 01:58:27;;;;;;;27.83;12.77;;;;;;;11.12;61.12;99429.84;5054646;28;20188;-73
2021/11/26 02:00:53;;;;;;;24.73;11.43;;;;;;;11.13;61.45;99426.19;5072659;28;20595;-73
2021/11/26 02:03:19;;;;;;;19.60;11.53;;;;;;;11.23;61.09;99440.56;5072404;28;20177;-73
2021/11/26 02:05:44;;;;;;;22.63;10.53;;;;;;;11.83;60.07;99428.69;5072583;28;20572;-73
2021/11/26 02:08:10;;;;;;;28.13;12.00;;;;;;;11.07;61.29;99426.69;5054458;28;20186;-73
2021/11/26 02:10:37;;;;;;;24.77;12.33;;;;;;;11.41;61.55;99435.59;5074442;28;20197;-73
2021/11/26 02:13:02;;;;;;;26.13;12.20;;;;;;;11.31;60.36;99415.06;5058296;28;20174;-73
2021/11/26 02:15:31;;;;;;;25.13;11.50;;;;;;;11.43;61.13;99422.13;5058147;28;20204;-73
2021/11/26 02:17:58;;;;;;;25.63;11.00;;;;;;;11.10;61.18;99422.91;5058337;28;20670;-73
2021/11/26 02:20:25;;;;;;;27.10;12.97;;;;;;;11.75;60.29;99422.25;5075756;28;20167;-73
2021/11/26 02:22:52;;;;;;;22.00;11.83;;;;;;;11.59;60.27;99417.28;5057768;28;20174;-73
2021/11/26 02:25:17;;;;;;;23.20;12.07;;;;;;;11.38;60.85;99411.78;5058089;28;20189;-73
2021/11/26 02:27:43;;;;;;;22.93;11.83;;;;;;;11.38;60.30;99414.47;5058018;28;20178;-73
2021/11/26 02:30:16;;;;;;;20.10;10.77;;;;;;;11.30;60.63;99411.56;5041008;28;20250;-73
2021/11/26 02:32:44;;;;;;;19.17;11.17;;;;;;;11.83;59.96;99409.13;5059244;28;20189;-73
2021/11/26 02:35:10;;;;;;;24.27;11.33;;;;;;;11.55;60.46;99416.69;5057667;28;20185;-73
2021/11/26 02:37:39;;;;;;;22.13;11.83;;;;;;;12.32;58.32;99406.00;5075665;28;20170;-74
2021/11/26 02:40:06;;;;;;;20.20;11.10;;;;;;;11.43;60.37;99417.63;5040878;28;20194;-73
2021/11/26 02:42:32;;;;;;;25.27;12.23;;;;;;;11.42;59.91;99409.72;5057763;28;20304;-73
2021/11/26 02:44:57;;;;;;;21.60;10.90;;;;;;;11.19;60.21;99393.72;5058186;28;20652;-74
2021/11/26 02:47:22;;;;;;;30.07;12.17;;;;;;;11.35;60.17;99414.72;5041026;28;20586;-73
2021/11/26 02:49:48;;;;;;;26.40;11.27;;;;;;;11.69;60.01;99401.34;5040902;28;20218;-73
2021/11/26 02:52:14;;;;;;;25.60;12.00;;;;;;;11.36;60.51;99411.06;5057594;28;20174;-73
2021/11/26 02:54:39;;;;;;;30.67;13.10;;;;;;;11.55;59.96;99406.00;5057650;28;20196;-72
2021/11/26 02:57:04;;;;;;;25.30;12.63;;;;;;;11.29;60.49;99399.16;5075352;28;20642;-73
2021/11/26 02:59:30;;;;;;;18.43;11.53;;;;;;;11.20;60.50;99392.75;5075330;28;20536;-73
2021/11/26 03:01:55;;;;;;;23.33;11.93;;;;;;;11.15;60.90;99394.91;5075132;28;20178;-73
2021/11/26 03:04:21;;;;;;;23.30;11.70;;;;;;;11.37;60.39;99385.22;5040377;28;20174;-73
2021/11/26 03:06:46;;;;;;;22.70;12.27;;;;;;;11.37;60.16;99387.88;5115603;22;20702;-65
2021/11/26 03:09:11;;;;;;;26.90;12.13;;;;;;;11.67;59.86;99379.25;5095448;28;20635;-65
2021/11/26 03:11:36;;;;;;;23.90;11.87;;;;;;;11.17;60.05;99378.78;5094353;28;20201;-67
2021/11/26 03:14:02;;;;;;;25.23;12.77;;;;;;;11.25;60.51;99377.19;5095443;28;20181;-65
2021/11/26 03:16:27;;;;;;;23.13;11.67;;;;;;;11.58;59.68;99376.34;5095425;28;20204;-65
2021/11/26 03:18:53;;;;;;;21.03;12.17;;;;;;;11.86;59.09;99368.78;5094222;28;20186;-66
2021/11/26 03:21:18;;;;;;;24.77;12.07;;;;;;;12.04;58.43;99377.16;5094617;28;20215;-66
2021/11/26 03:23:43;;;;;;;23.60;12.17;;;;;;;11.63;59.80;99361.75;5095274;28;20182;-67
2021/11/26 03:26:08;;;;;;;23.93;11.47;;;;;;;11.37;60.09;99362.00;5094145;28;20201;-67
2021/11/26 03:28:34;;;;;;;23.47;11.67;;;;;;;11.13;60.79;99370.13;5094281;28;20536;-66
2021/11/26 03:30:59;;;;;;;20.80;10.93;;;;;;;10.83;61.04;99376.03;5095110;28;20199;-66
2021/11/26 03:33:24;;;;;;;24.70;11.63;;;;;;;11.41;59.91;99375.97;5095750;28;20189;-65
2021/11/26 03:35:50;;;;;;;22.30;12.43;;;;;;;11.53;59.69;99367.00;5095178;28;20563;-66
2021/11/26 03:38:15;;;;;;;22.33;11.43;;;;;;;11.42;59.42;99367.00;5095140;28;20559;-66
2021/11/26 03:40:41;;;;;;;24.83;11.30;;;;;;;11.53;59.82;99365.19;5093874;28;20643;-66
2021/11/26 03:43:06;;;;;;;23.00;12.37;;;;;;;11.58;59.77;99378.16;5093551;28;20211;-67
2021/11/26 03:45:32;;;;;;;23.43;12.00;;;;;;;11.16;60.96;99371.75;5098772;28;20269;-66
2021/11/26 03:47:58;;;;;;;23.23;12.43;;;;;;;11.81;59.73;99366.50;5096334;28;20219;-66
2021/11/26 03:50:24;;;;;;;23.67;11.47;;;;;;;11.72;59.89;99364.53;5094878;28;20209;-65
2021/11/26 03:52:50;;;;;;;20.17;11.33;;;;;;;12.10;58.96;99363.28;5086123;28;20202;-66
2021/11/26 03:55:18;;;;;;;19.20;11.13;;;;;;;11.53;60.17;99370.53;5097465;28;20256;-67
2021/11/26 03:57:45;;;;;;;23.53;11.40;;;;;;;11.77;59.02;99348.13;5094664;28;20185;-67
2021/11/26 04:00:11;;;;;;;27.13;11.97;;;;;;;12.31;58.15;99356.16;5095056;28;20602;-66
2021/11/26 04:02:36;;;;;;;26.13;11.10;;;;;;;11.27;60.29;99343.19;5093311;28;20189;-67
2021/11/26 04:05:02;;;;;;;21.90;11.33;;;;;;;11.58;59.72;99352.31;5094473;28;20224;-68
2021/11/26 04:07:28;;;;;;;21.87;11.93;;;;;;;11.51;60.35;99345.72;5092893;28;20191;-67
2021/11/26 04:09:53;;;;;;;26.43;12.27;;;;;;;11.73;59.49;99338.66;5094235;28;20681;-65
2021/11/26 04:12:18;;;;;;;23.90;11.80;;;;;;;11.89;58.76;99344.47;5094540;28;20179;-66
2021/11/26 04:14:51;;;;;;;23.53;12.37;;;;;;;12.11;58.53;99343.56;5092838;28;20243;-65
2021/11/26 04:17:16;;;;;;;23.53;12.40;;;;;;;12.27;57.98;99333.31;5094405;28;20679;-67
2021/11/26 04:19:41;;;;;;;21.60;12.00;;;;;;;12.33;57.61;99337.31;5094236;28;20184;-66
2021/11/26 04:22:07;;;;;;;26.73;12.30;;;;;;;12.81;56.52;99322.44;5094553;28;20189;-67
2021/11/26 04:24:32;;;;;;;26.63;12.17;;;;;;;12.34;57.95;99329.16;5094026;28;20643;-67
2021/11/26 04:26:57;;;;;;;27.60;12.43;;;;;;;12.18;58.27;99334.91;5093720;28;20201;-67
2021/11/26 04:29:23;;;;;;;26.40;12.33;;;;;;;12.44;57.87;99330.06;5092874;28;20173;-66
2021/11/26 04:31:48;;;;;;;20.43;11.90;;;;;;;12.66;57.26;99329.09;5093792;28;20197;-67
2021/11/26 04:34:13;;;;;;;24.73;11.93;;;;;;;12.71;57.30;99318.00;5093383;28;20199;-67
2021/11/26 04:36:39;;;;;;;25.30;13.27;;;;;;;12.60;57.31;99312.69;5094257;28;20606;-67
2021/11/26 04:39:05;;;;;;;25.23;12.03;;;;;;;12.92;56.63;99317.97;5093739;28;20586;-67
2021/11/26 04:41:30;;;;;;;24.50;12.27;;;;;;;12.11;58.23;99306.97;5092500;28;20181;-67
2021/11/26 04:43:55;;;;;;;29.20;12.37;;;;;;;13.01;56.25;99311.84;5092333;28;20233;-67
2021/11/26 04:46:21;;;;;;;23.67;11.10;;;;;;;12.78;57.27;99301.28;5092469;28;20205;-67
2021/11/26 04:48:47;;;;;;;21.73;11.57;;;;;;;13.02;56.76;99305.50;5093827;28;20225;-67
2021/11/26 04:51:12;;;;;;;23.50;12.50;;;;;;;12.42;57.32;99302.59;5077957;28;20200;-67
2021/11/26 04:53:37;;;;;;;24.57;12.47;;;;;;;12.39;57.32;99296.66;5092660;28;20638;-66
2021/11/26 04:56:03;;;;;;;24.33;11.93;;;;;;;12.59;56.88;99305.66;5093338;28;20571;-66
2021/11/26 04:58:34;;;;;;;21.53;12.10;;;;;;;12.60;56.54;99302.00;5092257;28;20189;-66
2021/11/26 05:00:59;;;;;;;25.27;11.27;;;;;;;12.66;57.65;99301.50;5094208;28;20185;-66
2021/11/26 05:03:24;;;;;;;20.17;11.97;;;;;;;13.28;55.96;99304.06;5093396;28;20239;-66
2021/11/26 05:05:50;;;;;;;22.37;11.03;;;;;;;13.54;54.71;99291.06;5092956;28;20213;-67
2021/11/26 05:08:18;;;;;;;24.07;11.37;;;;;;;12.46;57.00;99289.78;5093606;28;20177;-65
2021/11/26 05:10:51;;;;;;;22.97;11.57;;;;;;;13.14;56.28;99296.38;5093161;28;20197;-64
2021/11/26 05:13:16;;;;;;;20.63;11.67;;;;;;;13.17;56.26;99289.91;5098911;28;20217;-66
2021/11/26 05:15:41;;;;;;;25.40;11.03;;;;;;;12.48;57.51;99293.19;5106959;28;20205;-67
2021/11/26 05:18:07;;;;;;;20.43;10.03;;;;;;;12.80;56.73;99293.13;5093968;28;20181;-67
2021/11/26 05:20:33;;;;;;;21.10;10.70;;;;;;;13.47;56.08;99302.47;5093294;28;20604;-67
2021/11/26 05:22:59;;;;;;;24.97;10.50;;;;;;;13.58;55.46;99291.63;5077180;28;20227;-67
2021/11/26 05:25:24;;;;;;;15.90;9.80;;;;;;;13.52;55.71;99289.50;5096469;28;20201;-66
2021/11/26 05:27:50;;;;;;;19.67;10.07;;;;;;;13.05;56.84;99295.38;5095447;28;20517;-68
2021/11/26 05:30:16;;;;;;;19.20;9.93;;;;;;;13.12;56.32;99296.53;5094040;28;20204;-65
2021/11/26 05:32:42;;;;;;;21.77;10.30;;;;;;;13.37;55.85;99287.19;5095162;28;20182;-67
2021/11/26 05:35:09;;;;;;;20.03;10.50;;;;;;;13.10;57.07;99289.59;5097864;28;20170;-66
2021/11/26 05:37:35;;;;;;;23.37;10.80;;;;;;;13.20;56.11;99279.81;5094701;28;20201;-66
2021/11/26 05:40:00;;;;;;;22.20;11.37;;;;;;;13.51;55.53;99277.09;5094037;28;20625;-66
2021/11/26 05:42:26;;;;;;;22.07;10.63;;;;;;;13.48;55.37;99272.84;5095843;28;20539;-64
2021/11/26 05:44:51;;;;;;;20.23;10.20;;;;;;;12.85;56.19;99264.09;5096940;28;20187;-66
2021/11/26 05:47:16;;;;;;;21.90;10.03;;;;;;;13.19;55.93;99266.53;5102455;28;20197;-65
2021/11/26 05:49:42;;;;;;;25.50;10.50;;;;;;;13.14;56.27;99264.25;5102587;28;20177;-65
2021/11/26 05:52:07;;;;;;;22.47;11.27;;;;;;;13.28;55.94;99263.88;5102459;28;20171;-65
2021/11/26 05:54:33;;;;;;;22.17;10.63;;;;;;;13.72;54.79;99251.00;5101081;28;20218;-66
2021/11/26 05:56:58;;;;;;;21.03;10.00;;;;;;;13.23;55.64;99250.06;5101577;28;20235;-65
2021/11/26 05:59:23;;;;;;;16.27;10.47;;;;;;;13.59;55.40;99239.72;5101819;28;20189;-65
2021/11/26 06:01:49;;;;;;;22.33;10.87;;;;;;;13.10;55.66;99242.25;5101045;28;20528;-67
2021/11/26 06:04:14;;;;;;;21.30;10.00;;;;;;;12.71;56.85;99240.38;5099320;28;20174;-66
2021/11/26 06:06:39;;;;;;;17.90;9.80;;;;;;;13.35;55.54;99245.44;5099677;28;20206;-66
2021/11/26 06:09:04;;;;;;;22.37;9.53;;;;;;;12.94;56.34;99239.19;5099473;28;20178;-66
2021/11/26 06:11:30;;;;;;;20.37;10.13;;;;;;;12.92;56.61;99243.84;5099339;28;20201;-66
2021/11/26 06:13:56;;;;;;;18.20;9.43;;;;;;;12.40;57.34;99242.16;5099853;28;20208;-66
2021/11/26 06:16:22;;;;;;;18.70;9.90;;;;;;;13.00;56.06;99241.31;5100817;28;20270;-68
2021/11/26 06:18:47;;;;;;;15.30;9.13;;;;;;;13.03;56.46;99250.94;5102313;28;20173;-68
2021/11/26 06:21:12;;;;;;;18.50;8.43;;;;;;;12.72;57.11;99237.56;5099682;28;20174;-66
2021/11/26 06:23:37;;;;;;;18.60;9.73;;;;;;;13.30;55.99;99235.13;5101275;28;20536;-67
2021/11/26 06:26:03;;;;;;;21.80;9.63;;;;;;;12.88;56.68;99228.19;5100712;28;20201;-66
2021/11/26 06:28:28;;;;;;;16.33;8.80;;;;;;;12.65;57.52;99223.03;5100943;28;20177;-65
2021/11/26 06:30:53;;;;;;;20.93;9.17;;;;;;;13.11;56.14;99227.00;5100864;28;20259;-66
2021/11/26 06:33:19;;;;;;;22.07;9.40;;;;;;;12.61;57.00;99226.06;5100648;28;20513;-66
2021/11/26 06:35:44;;;;;;;17.80;8.70;;;;;;;12.59;56.72;99223.53;5100038;28;20207;-67
2021/11/26 06:38:09;;;;;;;15.73;8.23;;;;;;;13.01;56.13;99231.50;5099270;28;20178;-67
2021/11/26 06:40:34;;;;;;;18.80;9.00;;;;;;;13.07;55.97;99230.94;5100099;28;20185;-66
2021/11/26 06:43:00;;;;;;;20.23;9.03;;;;;;;12.62;56.73;99225.94;5099933;28;20182;-67
2021/11/26 06:45:25;;;;;;;20.77;9.30;;;;;;;12.60;56.94;99227.91;5100929;28;20571;-69
2021/11/26 06:47:51;;;;;;;20.43;8.50;;;;;;;13.01;56.40;99231.50;5100150;28;20182;-67
2021/11/26 06:50:17;;;;;;;17.47;8.70;;;;;;;12.62;57.41;99236.63;5099819;28;20645;-68
2021/11/26 06:52:42;;;;;;;19.70;8.90;;;;;;;12.33;57.35;99224.94;5100583;28;20180;-68
2021/11/26 06:55:09;;;;;;;15.83;7.93;;;;;;;12.67;57.43;99238.94;5098878;28;20173;-68
2021/11/26 06:57:35;;;;;;;20.37;8.50;;;;;;;12.14;59.01;99236.34;5099833;28;20182;-67
2021/11/26 07:00:00;;;;;;;19.03;8.20;;;;;;;12.78;56.88;99230.81;5099979;28;20178;-68
2021/11/26 07:02:26;;;;;;;18.60;8.03;;;;;;;12.85;56.43;99240.00;5101621;28;20538;-67
2021/11/26 07:04:51;;;;;;;17.67;8.43;;;;;;;11.86;58.06;99237.78;5101363;28;20181;-68
2021/11/26 07:07:17;;;;;;;19.20;8.80;;;;;;;13.35;55.77;99240.91;5100842;28;20206;-67
2021/11/26 07:09:42;;;;;;;17.80;8.73;;;;;;;12.68;56.95;99243.31;5099450;28;20185;-68
2021/11/26 07:12:11;;;;;;;17.53;8.00;;;;;;;13.58;55.41;99240.69;5098583;28;20166;-68
2021/11/26 07:14:43;;;;;;;18.70;8.17;;;;;;;13.44;55.42;99247.31;5097201;28;20327;-68
2021/11/26 07:17:09;;;;;;;19.93;9.50;;;;;;;13.30;55.56;99245.00;5096312;28;20280;-70
2021/11/26 07:19:36;;;;;;;20.23;8.50;;;;;;;14.49;53.26;99239.44;5096147;28;20255;-68
2021/11/26 07:22:01;;;;;;;11.70;6.70;;;;;;;13.57;54.51;99236.31;5096681;28;20163;-68
2021/11/26 07:24:27;;;;;;;17.23;8.07;;;;;;;13.82;54.16;99233.13;5095628;28;20261;-70
2021/11/26 07:26:52;;;;;;;17.47;7.40;;;;;;;13.47;54.33;99227.41;5095606;28;20255;-68
2021/11/26 07:29:17;;;;;;;19.83;8.53;;;;;;;13.96;54.11;99234.53;5094293;28;20169;-68
2021/11/26 07:31:43;;;;;;;17.23;7.70;;;;;;;13.57;54.22;99223.75;5096016;28;20202;-68
2021/11/26 07:34:08;;;;;;;14.97;7.23;;;;;;;12.64;55.62;99224.00;5096117;28;20181;-69
2021/11/26 07:36:33;;;;;;;18.73;7.93;;;;;;;12.52;56.47;99230.41;5094656;28;20190;-69
2021/11/26 07:38:58;;;;;;;15.50;7.57;;;;;;;12.47;57.11;99230.78;5094911;28;20257;-67
2021/11/26 07:41:24;;;;;;;19.57;8.13;;;;;;;12.88;56.59;99230.84;5097935;28;20552;-68
2021/11/26 07:43:49;;;;;;;20.87;8.47;;;;;;;12.54;56.17;99212.38;5096690;28;20174;-69
2021/11/26 07:46:15;;;;;;;20.83;8.37;;;;;;;12.54;57.44;99231.09;5094454;28;20198;-68
2021/11/26 07:48:40;;;;;;;22.40;8.40;;;;;;;12.61;56.23;99218.88;5096097;28;20174;-68
2021/11/26 07:51:06;;;;;;;19.27;9.17;;;;;;;11.92;58.30;99221.28;5093887;28;20193;-68
2021/11/26 07:53:32;;;;;;;22.23;9.03;;;;;;;11.89;58.49;99224.16;5096219;28;20166;-69
2021/11/26 07:55:58;;;;;;;23.60;9.23;;;;;;;12.14;58.06;99226.50;5094255;28;20597;-68
2021/11/26 07:58:23;;;;;;;21.73;10.27;;;;;;;12.91;56.77;99209.16;5095990;28;20174;-69
2021/11/26 08:00:49;;;;;;;21.87;11.07;;;;;;;12.11;58.25;99218.72;5097878;28;20188;-69
2021/11/26 08:03:16;;;;;;;23.63;11.17;;;;;;;12.76;57.07;99217.56;5098996;28;20174;-69
2021/11/26 08:05:42;;;;;;;19.20;9.97;;;;;;;12.39;57.97;99214.56;5096244;28;20254;-69
2021/11/26 08:08:09;;;;;;;21.10;9.73;;;;;;;12.75;57.23;99212.34;5095331;28;20177;-69
2021/11/26 08:10:36;;;;;;;20.30;10.03;;;;;;;13.28;56.04;99223.69;5096096;28;20201;-68
2021/11/26 08:13:01;;;;;;;17.77;9.90;;;;;;;12.77;56.74;99210.38;5095958;28;20639;-68
2021/11/26 08:15:27;;;;;;;20.90;9.57;;;;;;;12.30;58.41;99209.16;5096950;28;20215;-68
2021/11/26 08:17:52;;;;;;;19.33;9.13;;;;;;;13.04;56.84;99212.47;5096290;28;20174;-70
2021/11/26 08:20:18;;;;;;;22.70;9.50;;;;;;;13.13;55.73;99206.28;5096733;28;20188;-70
2021/11/26 08:22:43;;;;;;;19.67;8.93;;;;;;;12.92;57.03;99213.53;5098340;28;20201;-68
2021/11/26 08:25:10;;;;;;;21.47;9.60;;;;;;;13.64;55.31;99205.28;5095707;28;20172;-69
2021/11/26 08:27:36;;;;;;;26.63;10.40;;;;;;;13.98;54.41;99209.25;5095263;28;20185;-69
2021/11/26 08:30:01;;;;;;;20.83;9.87;;;;;;;13.79;54.76;99197.69;5103617;28;20201;-68
2021/11/26 08:32:28;;;;;;;27.70;11.43;;;;;;;13.05;56.10;99201.63;5091593;28;20182;-68
2021/11/26 08:34:53;;;;;;;26.80;10.23;;;;;;;13.22;55.79;99202.81;5107549;28;20186;-68
2021/11/26 08:37:18;;;;;;;20.77;9.97;;;;;;;12.98;56.58;99183.53;5108659;28;20190;-69
2021/11/26 08:39:44;;;;;;;18.80;10.13;;;;;;;13.19;55.75;99176.31;5107209;28;20357;-68
2021/11/26 08:42:09;;;;;;;26.77;10.73;;;;;;;13.33;56.00;99185.78;5105542;28;20178;-69
2021/11/26 08:44:34;;;;;;;26.70;10.70;;;;;;;13.89;54.47;99172.56;5104457;28;20170;-69
2021/11/26 08:46:59;;;;;;;23.60;10.93;;;;;;;12.76;56.93;99169.38;5105525;28;20197;-69
2021/11/26 08:49:25;;;;;;;24.60;10.57;;;;;;;12.80;56.64;99175.31;5109345;28;20169;-68
2021/11/26 08:51:53;;;;;;;25.20;11.23;;;;;;;13.16;55.94;99176.56;5108924;28;20201;-68
2021/11/26 08:54:23;;;;;;;21.30;10.80;;;;;;;12.26;57.26;99180.94;5112680;28;20178;-68
2021/11/26 08:56:52;;;;;;;29.03;10.83;;;;;;;12.64;57.12;99177.66;5112669;28;20236;-68
2021/11/26 08:59:17;;;;;;;28.07;11.57;;;;;;;13.27;55.71;99178.28;5112129;28;20177;-69
2021/11/26 09:01:42;;;;;;;28.80;11.33;;;;;;;12.52;57.20;99182.22;5110300;28;20169;-68
2021/11/26 09:04:09;;;;;;;24.47;11.10;;;;;;;12.16;57.35;99167.50;5096756;28;20186;-68
2021/11/26 09:06:35;;;;;;;25.50;11.07;;;;;;;13.43;55.53;99176.78;5103209;22;20242;-69
2021/11/26 09:09:00;;;;;;;24.83;11.23;;;;;;;12.98;55.87;99165.63;5051904;28;20171;-70
2021/11/26 09:11:25;;;;;;;23.27;10.53;;;;;;;12.04;56.42;99158.72;5052055;28;20195;-71
2021/11/26 09:13:50;;;;;;;19.37;9.87;;;;;;;12.85;56.26;99170.41;5051801;28;20179;-70
2021/11/26 09:16:16;;;;;;;23.10;11.27;;;;;;;13.27;55.53;99171.09;5035072;28;20199;-70
2021/11/26 09:18:41;;;;;;;20.43;9.87;;;;;;;13.26;55.95;99176.59;5053307;28;20194;-71
2021/11/26 09:21:07;;;;;;;24.23;12.00;;;;;;;13.18;55.77;99166.56;5055486;28;20587;-70
2021/11/26 09:23:32;;;;;;;22.03;10.43;;;;;;;13.22;55.79;99159.94;5057417;28;20179;-71
2021/11/26 09:25:57;;;;;;;24.47;11.83;;;;;;;12.87;56.07;99167.59;5055578;28;20294;-71
2021/11/26 09:28:23;;;;;;;30.13;11.97;;;;;;;13.47;55.26;99157.75;5057754;28;20549;-71
2021/11/26 09:30:49;;;;;;;26.93;11.73;;;;;;;12.60;56.69;99150.28;5057405;28;20203;-71
2021/11/26 09:33:19;;;;;;;28.10;11.93;;;;;;;13.53;56.41;99163.38;5057632;28;20649;-71
2021/11/26 09:35:45;;;;;;;30.33;11.67;;;;;;;12.30;58.16;99161.84;5055731;28;20252;-71
2021/11/26 09:38:10;;;;;;;22.93;11.17;;;;;;;11.92;58.35;99146.41;5057315;28;20596;-71
2021/11/26 09:40:36;;;;;;;25.87;11.50;;;;;;;12.60;56.47;99144.09;5039344;28;20182;-71
2021/11/26 09:43:02;;;;;;;25.67;11.00;;;;;;;13.14;56.14;99143.69;5055917;28;20181;-71
2021/11/26 09:45:29;;;;;;;23.10;11.33;;;;;;;13.07;56.24;99142.56;5055872;28;20180;-71
2021/11/26 09:47:54;;;;;;;22.47;11.37;;;;;;;12.56;57.45;99140.84;5064350;28;20230;-72
2021/11/26 09:50:22;;;;;;;24.03;11.87;;;;;;;13.26;56.46;99139.94;5056735;28;20227;-71
2021/11/26 09:52:48;;;;;;;21.50;10.87;;;;;;;12.70;56.83;99132.44;5057446;28;20546;-71
2021/11/26 09:55:17;;;;;;;25.43;10.10;;;;;;;13.10;55.89;99143.13;5057678;28;20211;-71
2021/11/26 09:57:45;;;;;;;19.47;10.40;;;;;;;13.72;54.97;99138.41;5057385;28;20207;-71
2021/11/26 10:00:12;;;;;;;21.20;10.07;;;;;;;13.93;54.75;99139.09;5057339;28;20509;-72
2021/11/26 10:02:50;;;;;;;24.17;11.73;;;;;;;13.38;55.95;99133.47;5056177;28;20180;-71
2021/11/26 10:05:15;;;;;;;21.37;9.93;;;;;;;12.76;54.95;99113.16;5058095;28;20174;-71
2021/11/26 10:07:54;;;;;;;17.73;8.30;;;;;;;12.11;57.75;99125.13;5059458;28;20211;-71
2021/11/26 10:10:22;;;;;;;20.23;8.77;;;;;;;13.55;55.24;99125.72;5040345;28;20191;-71
2021/11/26 10:13:03;;;;;;;16.57;7.87;;;;;;;13.01;57.06;99122.53;5056429;28;20175;-71
2021/11/26 10:15:30;;;;;;;14.47;7.63;;;;;;;13.32;56.75;99122.44;5038592;28;20163;-71
2021/11/26 10:18:08;;;;;;;14.83;7.10;;;;;;;13.44;55.73;99116.84;5055383;28;20202;-70
2021/11/26 10:20:33;;;;;;;13.13;6.33;;;;;;;12.67;57.00;99097.09;5056460;28;20164;-71
2021/11/26 10:22:58;;;;;;;12.53;7.10;;;;;;;12.30;57.08;99103.00;5056716;28;20182;-70
2021/11/26 10:25:24;;;;;;;12.93;7.20;;;;;;;12.57;56.77;99094.34;5055220;28;20183;-71
2021/11/26 10:27:57;;;;;;;13.53;6.77;;;;;;;12.33;57.06;99084.00;5054754;28;20222;-71
2021/11/26 10:30:32;;;;;;;15.60;6.77;;;;;;;13.33;56.84;99097.34;5054971;28;20192;-71
2021/11/26 10:33:22;;;;;;;13.10;6.30;;;;;;;13.20;56.09;99086.06;5054970;28;20159;-70
2021/11/26 10:35:50;;;;;;;16.00;6.90;;;;;;;14.07;54.70;99087.66;5038255;28;20186;-71
2021/11/26 10:38:34;;;;;;;14.23;6.90;;;;;;;14.18;54.22;99084.00;5054449;28;20183;-69
2021/11/26 10:41:03;;;;;;;12.63;6.53;;;;;;;13.37;55.85;99080.84;5054166;28;20243;-70
2021/11/26 10:43:51;;;;;;;14.73;6.97;;;;;;;13.89;55.06;99077.84;5054466;28;20175;-71
2021/11/26 10:49:31;;;;;;;14.07;6.60;;;;;;;14.13;54.55;99066.66;5054630;28;20251;-71
2021/11/26 10:52:14;;;;;;;12.50;6.73;;;;;;;14.57;53.28;99051.66;5054480;28;20238;-72
2021/11/26 11:00:19;;;;;;;15.17;7.43;;;;;;;13.95;54.41;99053.13;5027468;28;20278;-71
2021/11/26 11:02:47;;;;;;;11.53;6.87;;;;;;;14.27;53.57;99047.38;5054163;28;20187;-71
2021/11/26 11:05:30;;;;;;;12.73;6.97;;;;;;;13.76;55.18;99046.00;5054556;28;20198;-71
2021/11/26 11:07:57;;;;;;;15.77;7.87;;;;;;;13.59;55.00;99041.34;5053972;28;20209;-71
2021/11/26 11:10:24;;;;;;;13.07;6.97;;;;;;;14.62;53.41;99042.16;5055312;28;20231;-71
2021/11/26 11:12:49;;;;;;;18.10;7.00;;;;;;;14.07;53.98;99025.97;5054109;28;20176;-71
2021/11/26 11:15:15;;;;;;;16.40;7.40;;;;;;;13.45;55.00;99031.94;5055306;28;20229;-71
2021/11/26 11:17:40;;;;;;;16.50;7.00;;;;;;;13.07;56.61;99028.25;5054311;28;20195;-71
2021/11/26 11:20:09;;;;;;;14.63;7.67;;;;;;;13.47;55.97;99026.44;5055595;28;20180;-71
2021/11/26 11:22:36;;;;;;;18.13;7.90;;;;;;;14.71;53.50;99021.59;5037645;28;20187;-71
2021/11/26 11:25:01;;;;;;;16.63;7.30;;;;;;;12.58;56.73;99013.09;5036604;28;20180;-71